sensor_id;sensor_type;location;lat;lon;timestamp;temperature;humidity
10030;DHT22;5055;52.054;8.524;2023-04-08T00:01:56;3.30;97.00
10030;DHT22;5055;52.054;8.524;2023-04-08T00:04:24;3.20;97.00
10030;DHT22;5055;52.054;8.524;2023-04-08T00:06:53;3.20;97.00
10030;DHT22;5055;52.054;8.524;2023-04-08T00:09:22;3.30;97.00
10030;DHT22;5055;52.054;8.524;2023-04-08T00:11:50;3.30;97.00
10030;DHT22;5055;52.054;8.524;2023-04-08T00:14:19;3.30;97.00
10030;DHT22;5055;52.054;8.524;2023-04-08T00:16:47;3.30;97.00
10030;DHT22;5055;52.054;8.524;2023-04-08T00:19:16;3.40;97.00
10030;DHT22;5055;52.054;8.524;2023-04-08T00:21:44;3.40;97.00
10030;DHT22;5055;52.054;8.524;2023-04-08T00:24:12;3.50;97.00
10030;DHT22;5055;52.054;8.524;2023-04-08T00:26:39;3.50;97.00
10030;DHT22;5055;52.054;8.524;2023-04-08T00:29:07;3.60;97.00
10030;DHT22;5055;52.054;8.524;2023-04-08T00:31:37;3.60;97.00
10030;DHT22;5055;52.054;8.524;2023-04-08T00:34:05;3.70;97.00
10030;DHT22;5055;52.054;8.524;2023-04-08T00:36:33;3.70;97.00
10030;DHT22;5055;52.054;8.524;2023-04-08T00:39:02;3.70;97.00
10030;DHT22;5055;52.054;8.524;2023-04-08T00:41:33;3.80;97.00
10030;DHT22;5055;52.054;8.524;2023-04-08T00:44:01;3.80;97.00
10030;DHT22;5055;52.054;8.524;2023-04-08T00:46:30;3.90;97.00
10030;DHT22;5055;52.054;8.524;2023-04-08T00:49:03;3.90;97.00
10030;DHT22;5055;52.054;8.524;2023-04-08T00:51:31;3.90;97.00
10030;DHT22;5055;52.054;8.524;2023-04-08T00:54:02;3.90;97.00
10030;DHT22;5055;52.054;8.524;2023-04-08T00:56:31;4.00;97.00
10030;DHT22;5055;52.054;8.524;2023-04-08T00:59:00;4.00;97.00
10030;DHT22;5055;52.054;8.524;2023-04-08T01:01:34;4.00;97.00
10030;DHT22;5055;52.054;8.524;2023-04-08T01:04:16;4.00;97.00
10030;DHT22;5055;52.054;8.524;2023-04-08T01:06:50;4.00;97.00
10030;DHT22;5055;52.054;8.524;2023-04-08T01:09:22;4.10;97.00
10030;DHT22;5055;52.054;8.524;2023-04-08T01:11:53;4.10;97.00
10030;DHT22;5055;52.054;8.524;2023-04-08T01:14:25;4.10;97.00
10030;DHT22;5055;52.054;8.524;2023-04-08T01:16:56;4.10;97.00
10030;DHT22;5055;52.054;8.524;2023-04-08T01:19:29;4.20;97.00
10030;DHT22;5055;52.054;8.524;2023-04-08T01:22:02;4.20;97.00
10030;DHT22;5055;52.054;8.524;2023-04-08T01:24:35;4.20;97.00
10030;DHT22;5055;52.054;8.524;2023-04-08T01:27:08;4.20;97.00
10030;DHT22;5055;52.054;8.524;2023-04-08T01:29:38;4.20;97.00
10030;DHT22;5055;52.054;8.524;2023-04-08T01:32:07;4.20;97.00
10030;DHT22;5055;52.054;8.524;2023-04-08T01:34:36;4.20;97.00
10030;DHT22;5055;52.054;8.524;2023-04-08T01:37:05;4.30;97.00
10030;DHT22;5055;52.054;8.524;2023-04-08T01:39:34;4.30;97.00
10030;DHT22;5055;52.054;8.524;2023-04-08T01:42:03;4.30;97.00
10030;DHT22;5055;52.054;8.524;2023-04-08T01:44:34;4.40;97.00
10030;DHT22;5055;52.054;8.524;2023-04-08T01:47:03;4.40;97.00
10030;DHT22;5055;52.054;8.524;2023-04-08T01:49:31;4.40;97.00
10030;DHT22;5055;52.054;8.524;2023-04-08T01:52:01;4.50;97.00
10030;DHT22;5055;52.054;8.524;2023-04-08T01:54:30;4.50;97.00
10030;DHT22;5055;52.054;8.524;2023-04-08T01:56:59;4.50;97.00
10030;DHT22;5055;52.054;8.524;2023-04-08T01:59:30;4.50;97.00
10030;DHT22;5055;52.054;8.524;2023-04-08T02:02:04;4.60;97.00
10030;DHT22;5055;52.054;8.524;2023-04-08T02:04:35;4.60;97.00
10030;DHT22;5055;52.054;8.524;2023-04-08T02:07:03;4.60;97.00
10030;DHT22;5055;52.054;8.524;2023-04-08T02:09:32;4.60;97.00
10030;DHT22;5055;52.054;8.524;2023-04-08T02:12:00;4.70;97.00
10030;DHT22;5055;52.054;8.524;2023-04-08T02:14:29;4.70;97.00
10030;DHT22;5055;52.054;8.524;2023-04-08T02:17:04;4.70;97.00
10030;DHT22;5055;52.054;8.524;2023-04-08T02:19:38;4.70;97.00
10030;DHT22;5055;52.054;8.524;2023-04-08T02:22:10;4.80;97.00
10030;DHT22;5055;52.054;8.524;2023-04-08T02:24:39;4.80;97.00
10030;DHT22;5055;52.054;8.524;2023-04-08T02:27:09;4.80;97.00
10030;DHT22;5055;52.054;8.524;2023-04-08T02:29:39;4.80;97.00
10030;DHT22;5055;52.054;8.524;2023-04-08T02:32:10;4.80;97.00
10030;DHT22;5055;52.054;8.524;2023-04-08T02:34:39;4.80;97.00
10030;DHT22;5055;52.054;8.524;2023-04-08T02:37:08;4.80;97.00
10030;DHT22;5055;52.054;8.524;2023-04-08T02:39:36;4.80;97.00
10030;DHT22;5055;52.054;8.524;2023-04-08T02:42:04;4.90;97.00
10030;DHT22;5055;52.054;8.524;2023-04-08T02:44:32;4.90;97.00
10030;DHT22;5055;52.054;8.524;2023-04-08T02:47:00;4.90;97.00
10030;DHT22;5055;52.054;8.524;2023-04-08T02:49:30;4.90;97.00
10030;DHT22;5055;52.054;8.524;2023-04-08T02:51:58;4.90;97.00
10030;DHT22;5055;52.054;8.524;2023-04-08T02:54:26;4.90;97.00
10030;DHT22;5055;52.054;8.524;2023-04-08T02:56:54;4.90;97.00
10030;DHT22;5055;52.054;8.524;2023-04-08T02:59:22;5.00;97.00
10030;DHT22;5055;52.054;8.524;2023-04-08T03:01:51;5.00;97.00
10030;DHT22;5055;52.054;8.524;2023-04-08T03:04:19;5.00;97.00
10030;DHT22;5055;52.054;8.524;2023-04-08T03:06:49;5.00;97.00
10030;DHT22;5055;52.054;8.524;2023-04-08T03:09:17;5.10;97.00
10030;DHT22;5055;52.054;8.524;2023-04-08T03:11:45;5.10;97.00
10030;DHT22;5055;52.054;8.524;2023-04-08T03:14:19;5.10;97.00
10030;DHT22;5055;52.054;8.524;2023-04-08T03:16:48;5.10;97.00
10030;DHT22;5055;52.054;8.524;2023-04-08T03:19:16;5.20;97.00
10030;DHT22;5055;52.054;8.524;2023-04-08T03:21:44;5.30;97.00
10030;DHT22;5055;52.054;8.524;2023-04-08T03:24:14;5.30;97.00
10030;DHT22;5055;52.054;8.524;2023-04-08T03:26:42;5.30;97.00
10030;DHT22;5055;52.054;8.524;2023-04-08T03:29:10;5.40;97.00
10030;DHT22;5055;52.054;8.524;2023-04-08T03:31:38;5.40;97.00
10030;DHT22;5055;52.054;8.524;2023-04-08T03:34:06;5.40;97.00
10030;DHT22;5055;52.054;8.524;2023-04-08T03:36:35;5.40;97.00
10030;DHT22;5055;52.054;8.524;2023-04-08T03:39:03;5.50;97.00
10030;DHT22;5055;52.054;8.524;2023-04-08T03:41:32;5.50;97.00
10030;DHT22;5055;52.054;8.524;2023-04-08T03:44:01;5.50;97.00
10030;DHT22;5055;52.054;8.524;2023-04-08T03:46:29;5.50;97.00
10030;DHT22;5055;52.054;8.524;2023-04-08T03:48:57;5.50;97.00
10030;DHT22;5055;52.054;8.524;2023-04-08T03:51:27;5.60;97.00
10030;DHT22;5055;52.054;8.524;2023-04-08T03:53:56;5.60;97.00
10030;DHT22;5055;52.054;8.524;2023-04-08T03:56:24;5.60;97.00
10030;DHT22;5055;52.054;8.524;2023-04-08T03:58:53;5.60;97.00
10030;DHT22;5055;52.054;8.524;2023-04-08T04:01:21;5.60;97.00
10030;DHT22;5055;52.054;8.524;2023-04-08T04:03:49;5.60;97.00
10030;DHT22;5055;52.054;8.524;2023-04-08T04:06:17;5.60;97.00
10030;DHT22;5055;52.054;8.524;2023-04-08T04:08:46;5.60;97.00
10030;DHT22;5055;52.054;8.524;2023-04-08T04:11:16;5.60;97.00
10030;DHT22;5055;52.054;8.524;2023-04-08T04:13:44;5.60;97.00
10030;DHT22;5055;52.054;8.524;2023-04-08T04:16:13;5.60;97.00
10030;DHT22;5055;52.054;8.524;2023-04-08T04:18:41;5.70;97.00
10030;DHT22;5055;52.054;8.524;2023-04-08T04:21:10;5.70;97.00
10030;DHT22;5055;52.054;8.524;2023-04-08T04:23:38;5.70;97.00
10030;DHT22;5055;52.054;8.524;2023-04-08T04:26:07;5.70;97.00
10030;DHT22;5055;52.054;8.524;2023-04-08T04:28:36;5.70;97.00
10030;DHT22;5055;52.054;8.524;2023-04-08T04:31:04;5.70;97.00
10030;DHT22;5055;52.054;8.524;2023-04-08T04:33:34;5.70;97.00
10030;DHT22;5055;52.054;8.524;2023-04-08T04:36:02;5.70;97.00
10030;DHT22;5055;52.054;8.524;2023-04-08T04:38:30;5.60;97.00
10030;DHT22;5055;52.054;8.524;2023-04-08T04:40:58;5.60;97.00
10030;DHT22;5055;52.054;8.524;2023-04-08T04:43:27;5.60;97.00
10030;DHT22;5055;52.054;8.524;2023-04-08T04:45:55;5.60;97.00
10030;DHT22;5055;52.054;8.524;2023-04-08T04:48:23;5.60;97.00
10030;DHT22;5055;52.054;8.524;2023-04-08T04:50:56;5.60;97.00
10030;DHT22;5055;52.054;8.524;2023-04-08T04:53:24;5.60;97.00
10030;DHT22;5055;52.054;8.524;2023-04-08T04:55:52;5.60;97.00
10030;DHT22;5055;52.054;8.524;2023-04-08T04:58:21;5.60;97.00
10030;DHT22;5055;52.054;8.524;2023-04-08T05:00:49;5.60;97.00
10030;DHT22;5055;52.054;8.524;2023-04-08T05:03:17;5.60;97.00
10030;DHT22;5055;52.054;8.524;2023-04-08T05:05:50;5.60;97.00
10030;DHT22;5055;52.054;8.524;2023-04-08T05:08:19;5.60;97.00
10030;DHT22;5055;52.054;8.524;2023-04-08T05:10:48;5.60;97.00
10030;DHT22;5055;52.054;8.524;2023-04-08T05:13:17;5.60;97.00
10030;DHT22;5055;52.054;8.524;2023-04-08T05:15:45;5.60;97.00
10030;DHT22;5055;52.054;8.524;2023-04-08T05:18:13;5.60;97.00
10030;DHT22;5055;52.054;8.524;2023-04-08T05:20:41;5.70;97.00
10030;DHT22;5055;52.054;8.524;2023-04-08T05:23:09;5.70;97.00
10030;DHT22;5055;52.054;8.524;2023-04-08T05:25:38;5.70;97.00
10030;DHT22;5055;52.054;8.524;2023-04-08T05:28:06;5.70;97.00
10030;DHT22;5055;52.054;8.524;2023-04-08T05:30:34;5.70;97.00
10030;DHT22;5055;52.054;8.524;2023-04-08T05:33:02;5.70;97.00
10030;DHT22;5055;52.054;8.524;2023-04-08T05:35:30;5.70;97.00
10030;DHT22;5055;52.054;8.524;2023-04-08T05:37:59;5.70;97.00
10030;DHT22;5055;52.054;8.524;2023-04-08T05:40:27;5.70;97.00
10030;DHT22;5055;52.054;8.524;2023-04-08T05:42:56;5.80;97.00
10030;DHT22;5055;52.054;8.524;2023-04-08T05:45:24;5.80;97.00
10030;DHT22;5055;52.054;8.524;2023-04-08T05:47:52;5.80;97.00
10030;DHT22;5055;52.054;8.524;2023-04-08T05:50:20;5.80;97.00
10030;DHT22;5055;52.054;8.524;2023-04-08T05:52:48;5.80;97.00
10030;DHT22;5055;52.054;8.524;2023-04-08T05:55:16;5.80;97.00
10030;DHT22;5055;52.054;8.524;2023-04-08T05:57:44;5.80;97.00
10030;DHT22;5055;52.054;8.524;2023-04-08T06:00:14;5.90;97.00
10030;DHT22;5055;52.054;8.524;2023-04-08T06:02:42;5.90;97.00
10030;DHT22;5055;52.054;8.524;2023-04-08T06:05:11;5.90;97.00
10030;DHT22;5055;52.054;8.524;2023-04-08T06:07:39;5.90;97.00
10030;DHT22;5055;52.054;8.524;2023-04-08T06:10:07;5.90;97.00
10030;DHT22;5055;52.054;8.524;2023-04-08T06:12:35;5.90;97.00
10030;DHT22;5055;52.054;8.524;2023-04-08T06:15:05;5.90;97.00
10030;DHT22;5055;52.054;8.524;2023-04-08T06:17:36;6.00;97.00
10030;DHT22;5055;52.054;8.524;2023-04-08T06:20:05;6.00;97.00
10030;DHT22;5055;52.054;8.524;2023-04-08T06:22:35;6.00;97.00
10030;DHT22;5055;52.054;8.524;2023-04-08T06:25:04;6.10;97.00
10030;DHT22;5055;52.054;8.524;2023-04-08T06:27:32;6.10;97.00
10030;DHT22;5055;52.054;8.524;2023-04-08T06:30:01;6.20;97.00
10030;DHT22;5055;52.054;8.524;2023-04-08T06:32:29;6.20;97.00
10030;DHT22;5055;52.054;8.524;2023-04-08T06:34:59;6.20;97.00
10030;DHT22;5055;52.054;8.524;2023-04-08T06:37:27;6.20;97.00
10030;DHT22;5055;52.054;8.524;2023-04-08T06:39:55;6.20;97.00
10030;DHT22;5055;52.054;8.524;2023-04-08T06:42:24;6.20;97.00
10030;DHT22;5055;52.054;8.524;2023-04-08T06:44:53;6.20;97.00
10030;DHT22;5055;52.054;8.524;2023-04-08T06:47:21;6.30;97.00
10030;DHT22;5055;52.054;8.524;2023-04-08T06:49:49;6.30;97.00
10030;DHT22;5055;52.054;8.524;2023-04-08T06:52:20;6.40;97.00
10030;DHT22;5055;52.054;8.524;2023-04-08T06:54:48;6.40;97.00
10030;DHT22;5055;52.054;8.524;2023-04-08T06:57:16;6.40;97.00
10030;DHT22;5055;52.054;8.524;2023-04-08T06:59:44;6.40;97.00
10030;DHT22;5055;52.054;8.524;2023-04-08T07:02:12;6.50;97.00
10030;DHT22;5055;52.054;8.524;2023-04-08T07:04:41;6.40;97.00
10030;DHT22;5055;52.054;8.524;2023-04-08T07:07:12;6.40;97.00
10030;DHT22;5055;52.054;8.524;2023-04-08T07:09:42;6.40;97.00
10030;DHT22;5055;52.054;8.524;2023-04-08T07:12:11;6.50;97.00
10030;DHT22;5055;52.054;8.524;2023-04-08T07:14:39;6.50;97.00
10030;DHT22;5055;52.054;8.524;2023-04-08T07:17:07;6.60;97.00
10030;DHT22;5055;52.054;8.524;2023-04-08T07:19:36;6.70;97.00
10030;DHT22;5055;52.054;8.524;2023-04-08T07:22:04;6.80;97.00
10030;DHT22;5055;52.054;8.524;2023-04-08T07:24:32;6.90;97.00
10030;DHT22;5055;52.054;8.524;2023-04-08T07:27:02;7.00;97.00
10030;DHT22;5055;52.054;8.524;2023-04-08T07:29:30;7.10;97.00
10030;DHT22;5055;52.054;8.524;2023-04-08T07:31:58;7.10;97.00
10030;DHT22;5055;52.054;8.524;2023-04-08T07:34:26;7.20;97.00
10030;DHT22;5055;52.054;8.524;2023-04-08T07:36:54;7.20;97.00
10030;DHT22;5055;52.054;8.524;2023-04-08T07:39:22;7.30;97.00
10030;DHT22;5055;52.054;8.524;2023-04-08T07:41:50;7.30;97.00
10030;DHT22;5055;52.054;8.524;2023-04-08T07:44:19;7.30;97.00
10030;DHT22;5055;52.054;8.524;2023-04-08T07:46:48;7.40;97.00
10030;DHT22;5055;52.054;8.524;2023-04-08T07:49:17;7.50;97.00
10030;DHT22;5055;52.054;8.524;2023-04-08T07:51:45;7.50;97.00
10030;DHT22;5055;52.054;8.524;2023-04-08T07:54:13;7.60;97.00
10030;DHT22;5055;52.054;8.524;2023-04-08T07:56:43;7.60;97.00
10030;DHT22;5055;52.054;8.524;2023-04-08T07:59:11;7.70;97.00
10030;DHT22;5055;52.054;8.524;2023-04-08T08:01:40;7.60;97.00
10030;DHT22;5055;52.054;8.524;2023-04-08T08:04:08;7.60;97.00
10030;DHT22;5055;52.054;8.524;2023-04-08T08:06:37;7.70;97.00
10030;DHT22;5055;52.054;8.524;2023-04-08T08:09:05;7.60;97.00
10030;DHT22;5055;52.054;8.524;2023-04-08T08:11:33;7.70;97.00
10030;DHT22;5055;52.054;8.524;2023-04-08T08:14:01;7.70;97.00
10030;DHT22;5055;52.054;8.524;2023-04-08T08:16:30;7.70;97.00
10030;DHT22;5055;52.054;8.524;2023-04-08T08:19:00;7.70;97.00
10030;DHT22;5055;52.054;8.524;2023-04-08T08:21:30;7.80;97.00
10030;DHT22;5055;52.054;8.524;2023-04-08T08:23:58;7.80;97.00
10030;DHT22;5055;52.054;8.524;2023-04-08T08:26:26;7.90;97.00
10030;DHT22;5055;52.054;8.524;2023-04-08T08:28:54;8.10;97.00
10030;DHT22;5055;52.054;8.524;2023-04-08T08:31:22;8.30;97.00
10030;DHT22;5055;52.054;8.524;2023-04-08T08:33:50;8.60;97.00
10030;DHT22;5055;52.054;8.524;2023-04-08T08:36:20;8.80;97.00
10030;DHT22;5055;52.054;8.524;2023-04-08T08:38:48;9.10;97.00
10030;DHT22;5055;52.054;8.524;2023-04-08T08:41:17;9.10;97.00
10030;DHT22;5055;52.054;8.524;2023-04-08T08:43:45;9.10;97.00
10030;DHT22;5055;52.054;8.524;2023-04-08T08:46:16;9.20;97.00
10030;DHT22;5055;52.054;8.524;2023-04-08T08:48:44;9.10;97.00
10030;DHT22;5055;52.054;8.524;2023-04-08T08:51:13;9.00;97.00
10030;DHT22;5055;52.054;8.524;2023-04-08T08:53:42;9.00;97.00
10030;DHT22;5055;52.054;8.524;2023-04-08T08:56:12;8.90;97.00
10030;DHT22;5055;52.054;8.524;2023-04-08T08:58:44;8.90;97.00
10030;DHT22;5055;52.054;8.524;2023-04-08T09:01:35;8.90;97.00
10030;DHT22;5055;52.054;8.524;2023-04-08T09:04:12;9.00;97.00
10030;DHT22;5055;52.054;8.524;2023-04-08T09:06:43;9.10;97.00
10030;DHT22;5055;52.054;8.524;2023-04-08T09:09:13;9.30;97.00
10030;DHT22;5055;52.054;8.524;2023-04-08T09:11:43;9.30;97.00
10030;DHT22;5055;52.054;8.524;2023-04-08T09:14:19;9.30;97.00
10030;DHT22;5055;52.054;8.524;2023-04-08T09:16:47;9.40;97.00
10030;DHT22;5055;52.054;8.524;2023-04-08T09:19:15;9.50;97.00
10030;DHT22;5055;52.054;8.524;2023-04-08T09:21:44;9.60;97.00
10030;DHT22;5055;52.054;8.524;2023-04-08T09:24:28;9.70;97.00
10030;DHT22;5055;52.054;8.524;2023-04-08T09:27:00;9.80;97.00
10030;DHT22;5055;52.054;8.524;2023-04-08T09:29:28;9.90;97.00
10030;DHT22;5055;52.054;8.524;2023-04-08T09:32:01;10.00;97.00
10030;DHT22;5055;52.054;8.524;2023-04-08T09:34:29;10.00;97.00
10030;DHT22;5055;52.054;8.524;2023-04-08T09:37:00;10.10;97.00
10030;DHT22;5055;52.054;8.524;2023-04-08T09:39:30;10.20;97.00
10030;DHT22;5055;52.054;8.524;2023-04-08T09:41:59;10.30;97.00
10030;DHT22;5055;52.054;8.524;2023-04-08T09:44:33;10.20;97.00
10030;DHT22;5055;52.054;8.524;2023-04-08T09:47:08;10.30;97.00
10030;DHT22;5055;52.054;8.524;2023-04-08T09:49:39;10.50;97.00
10030;DHT22;5055;52.054;8.524;2023-04-08T09:52:12;10.50;97.00
10030;DHT22;5055;52.054;8.524;2023-04-08T09:54:49;10.50;97.00
10030;DHT22;5055;52.054;8.524;2023-04-08T09:57:22;10.50;97.00
10030;DHT22;5055;52.054;8.524;2023-04-08T09:59:59;10.50;97.00
10030;DHT22;5055;52.054;8.524;2023-04-08T10:02:33;10.60;97.00
10030;DHT22;5055;52.054;8.524;2023-04-08T10:05:06;10.60;97.00
10030;DHT22;5055;52.054;8.524;2023-04-08T10:07:35;10.60;97.00
10030;DHT22;5055;52.054;8.524;2023-04-08T10:10:06;10.50;97.00
10030;DHT22;5055;52.054;8.524;2023-04-08T10:12:36;10.50;97.00
10030;DHT22;5055;52.054;8.524;2023-04-08T10:15:24;10.50;97.00
10030;DHT22;5055;52.054;8.524;2023-04-08T10:17:53;10.50;97.00
10030;DHT22;5055;52.054;8.524;2023-04-08T10:20:40;10.50;97.00
10030;DHT22;5055;52.054;8.524;2023-04-08T10:23:09;10.50;97.00
10030;DHT22;5055;52.054;8.524;2023-04-08T10:25:41;10.50;97.00
10030;DHT22;5055;52.054;8.524;2023-04-08T10:28:25;10.50;97.00
10030;DHT22;5055;52.054;8.524;2023-04-08T10:30:54;10.40;97.00
10030;DHT22;5055;52.054;8.524;2023-04-08T10:33:24;10.30;97.00
10030;DHT22;5055;52.054;8.524;2023-04-08T10:35:59;10.30;97.00
10030;DHT22;5055;52.054;8.524;2023-04-08T10:38:28;10.30;97.00
10030;DHT22;5055;52.054;8.524;2023-04-08T10:40:58;10.30;97.00
10030;DHT22;5055;52.054;8.524;2023-04-08T10:43:31;10.20;97.00
10030;DHT22;5055;52.054;8.524;2023-04-08T10:46:00;10.30;97.00
10030;DHT22;5055;52.054;8.524;2023-04-08T10:48:28;10.30;97.00
10030;DHT22;5055;52.054;8.524;2023-04-08T10:50:58;10.30;97.00
10030;DHT22;5055;52.054;8.524;2023-04-08T10:53:27;10.30;97.00
10030;DHT22;5055;52.054;8.524;2023-04-08T10:56:04;10.30;97.00
10030;DHT22;5055;52.054;8.524;2023-04-08T10:58:34;10.30;97.00
10030;DHT22;5055;52.054;8.524;2023-04-08T11:01:03;10.30;97.00
10030;DHT22;5055;52.054;8.524;2023-04-08T11:03:33;10.20;97.00
10030;DHT22;5055;52.054;8.524;2023-04-08T11:06:03;10.20;97.00
10030;DHT22;5055;52.054;8.524;2023-04-08T11:08:33;10.20;97.00
10030;DHT22;5055;52.054;8.524;2023-04-08T11:11:04;10.00;97.00
10030;DHT22;5055;52.054;8.524;2023-04-08T11:13:35;10.00;97.00
10030;DHT22;5055;52.054;8.524;2023-04-08T11:16:05;10.00;97.00
10030;DHT22;5055;52.054;8.524;2023-04-08T11:18:44;10.00;97.00
10030;DHT22;5055;52.054;8.524;2023-04-08T11:21:14;10.10;97.00
10030;DHT22;5055;52.054;8.524;2023-04-08T11:23:43;10.20;97.00
10030;DHT22;5055;52.054;8.524;2023-04-08T11:26:12;10.10;97.00
10030;DHT22;5055;52.054;8.524;2023-04-08T11:28:42;10.20;97.00
10030;DHT22;5055;52.054;8.524;2023-04-08T11:31:10;10.30;97.00
10030;DHT22;5055;52.054;8.524;2023-04-08T11:33:44;10.40;97.00
10030;DHT22;5055;52.054;8.524;2023-04-08T11:36:13;10.30;97.00
10030;DHT22;5055;52.054;8.524;2023-04-08T11:38:41;10.20;97.00
10030;DHT22;5055;52.054;8.524;2023-04-08T11:41:11;10.20;97.00
10030;DHT22;5055;52.054;8.524;2023-04-08T11:43:50;10.10;97.00
10030;DHT22;5055;52.054;8.524;2023-04-08T11:46:18;10.00;97.00
10030;DHT22;5055;52.054;8.524;2023-04-08T11:48:57;10.00;97.00
10030;DHT22;5055;52.054;8.524;2023-04-08T11:51:25;10.00;97.00
10030;DHT22;5055;52.054;8.524;2023-04-08T11:53:54;9.90;97.00
10030;DHT22;5055;52.054;8.524;2023-04-08T11:56:24;10.10;97.00
10030;DHT22;5055;52.054;8.524;2023-04-08T11:58:53;10.30;97.00
10030;DHT22;5055;52.054;8.524;2023-04-08T12:01:21;10.40;97.00
10030;DHT22;5055;52.054;8.524;2023-04-08T12:03:59;10.50;97.00
10030;DHT22;5055;52.054;8.524;2023-04-08T12:06:28;10.50;97.00
10030;DHT22;5055;52.054;8.524;2023-04-08T12:08:57;10.60;97.00
10030;DHT22;5055;52.054;8.524;2023-04-08T12:11:29;10.70;97.00
10030;DHT22;5055;52.054;8.524;2023-04-08T12:13:57;10.80;97.00
10030;DHT22;5055;52.054;8.524;2023-04-08T12:16:25;10.80;97.00
10030;DHT22;5055;52.054;8.524;2023-04-08T12:18:54;10.90;97.00
10030;DHT22;5055;52.054;8.524;2023-04-08T12:21:22;10.80;97.00
10030;DHT22;5055;52.054;8.524;2023-04-08T12:23:55;10.80;97.00
10030;DHT22;5055;52.054;8.524;2023-04-08T12:26:24;10.70;97.00
10030;DHT22;5055;52.054;8.524;2023-04-08T12:28:54;10.80;97.00
10030;DHT22;5055;52.054;8.524;2023-04-08T12:31:23;10.70;97.00
10030;DHT22;5055;52.054;8.524;2023-04-08T12:33:53;10.80;97.00
10030;DHT22;5055;52.054;8.524;2023-04-08T12:36:21;10.80;97.00
10030;DHT22;5055;52.054;8.524;2023-04-08T12:38:50;10.70;97.00
10030;DHT22;5055;52.054;8.524;2023-04-08T12:41:18;10.60;97.00
10030;DHT22;5055;52.054;8.524;2023-04-08T12:43:46;10.70;97.00
10030;DHT22;5055;52.054;8.524;2023-04-08T12:46:15;10.80;97.00
10030;DHT22;5055;52.054;8.524;2023-04-08T12:48:43;10.80;97.00
10030;DHT22;5055;52.054;8.524;2023-04-08T12:51:13;10.70;97.00
10030;DHT22;5055;52.054;8.524;2023-04-08T12:53:41;10.70;97.00
10030;DHT22;5055;52.054;8.524;2023-04-08T12:56:09;10.70;97.00
10030;DHT22;5055;52.054;8.524;2023-04-08T12:58:38;10.70;97.00
10030;DHT22;5055;52.054;8.524;2023-04-08T13:01:07;10.80;97.00
10030;DHT22;5055;52.054;8.524;2023-04-08T13:03:36;10.80;97.00
10030;DHT22;5055;52.054;8.524;2023-04-08T13:06:04;10.80;97.00
10030;DHT22;5055;52.054;8.524;2023-04-08T13:08:33;10.80;97.00
10030;DHT22;5055;52.054;8.524;2023-04-08T13:11:01;10.80;97.00
10030;DHT22;5055;52.054;8.524;2023-04-08T13:13:30;10.80;97.00
10030;DHT22;5055;52.054;8.524;2023-04-08T13:15:58;10.70;97.00
10030;DHT22;5055;52.054;8.524;2023-04-08T13:18:26;10.70;97.00
10030;DHT22;5055;52.054;8.524;2023-04-08T13:20:55;10.70;97.00
10030;DHT22;5055;52.054;8.524;2023-04-08T13:23:24;10.70;97.00
10030;DHT22;5055;52.054;8.524;2023-04-08T13:25:53;10.70;97.00
10030;DHT22;5055;52.054;8.524;2023-04-08T13:28:21;10.70;97.00
10030;DHT22;5055;52.054;8.524;2023-04-08T13:30:49;10.70;97.00
10030;DHT22;5055;52.054;8.524;2023-04-08T13:33:17;10.80;97.00
10030;DHT22;5055;52.054;8.524;2023-04-08T13:35:45;10.80;97.00
10030;DHT22;5055;52.054;8.524;2023-04-08T13:38:17;10.90;97.00
10030;DHT22;5055;52.054;8.524;2023-04-08T13:40:51;11.00;97.00
10030;DHT22;5055;52.054;8.524;2023-04-08T13:43:21;11.00;97.00
10030;DHT22;5055;52.054;8.524;2023-04-08T13:45:53;11.00;97.00
10030;DHT22;5055;52.054;8.524;2023-04-08T13:48:27;11.00;97.00
10030;DHT22;5055;52.054;8.524;2023-04-08T13:50:56;11.00;97.00
10030;DHT22;5055;52.054;8.524;2023-04-08T13:53:35;11.10;97.00
10030;DHT22;5055;52.054;8.524;2023-04-08T13:56:03;11.00;97.00
10030;DHT22;5055;52.054;8.524;2023-04-08T13:58:32;10.90;97.00
10030;DHT22;5055;52.054;8.524;2023-04-08T14:01:00;10.90;97.00
10030;DHT22;5055;52.054;8.524;2023-04-08T14:03:29;10.80;97.00
10030;DHT22;5055;52.054;8.524;2023-04-08T14:05:57;10.90;97.00
10030;DHT22;5055;52.054;8.524;2023-04-08T14:08:27;11.00;97.00
10030;DHT22;5055;52.054;8.524;2023-04-08T14:10:57;11.10;97.00
10030;DHT22;5055;52.054;8.524;2023-04-08T14:13:25;11.10;97.00
10030;DHT22;5055;52.054;8.524;2023-04-08T14:15:53;11.10;97.00
10030;DHT22;5055;52.054;8.524;2023-04-08T14:18:23;11.20;97.00
10030;DHT22;5055;52.054;8.524;2023-04-08T14:20:52;11.20;97.00
10030;DHT22;5055;52.054;8.524;2023-04-08T14:23:20;11.20;97.00
10030;DHT22;5055;52.054;8.524;2023-04-08T14:25:48;11.30;97.00
10030;DHT22;5055;52.054;8.524;2023-04-08T14:28:17;11.30;97.00
10030;DHT22;5055;52.054;8.524;2023-04-08T14:30:45;11.30;97.00
10030;DHT22;5055;52.054;8.524;2023-04-08T14:33:16;11.20;97.00
10030;DHT22;5055;52.054;8.524;2023-04-08T14:35:44;11.10;97.00
10030;DHT22;5055;52.054;8.524;2023-04-08T14:38:13;11.10;97.00
10030;DHT22;5055;52.054;8.524;2023-04-08T14:40:41;11.20;97.00
10030;DHT22;5055;52.054;8.524;2023-04-08T14:43:10;11.20;97.00
10030;DHT22;5055;52.054;8.524;2023-04-08T14:45:40;11.20;97.00
10030;DHT22;5055;52.054;8.524;2023-04-08T14:48:13;11.10;97.00
10030;DHT22;5055;52.054;8.524;2023-04-08T14:50:42;11.10;97.00
10030;DHT22;5055;52.054;8.524;2023-04-08T14:53:13;11.10;97.00
10030;DHT22;5055;52.054;8.524;2023-04-08T14:55:41;11.00;97.00
10030;DHT22;5055;52.054;8.524;2023-04-08T14:58:10;10.90;97.00
10030;DHT22;5055;52.054;8.524;2023-04-08T15:00:41;10.80;97.00
10030;DHT22;5055;52.054;8.524;2023-04-08T15:03:12;10.70;97.00
10030;DHT22;5055;52.054;8.524;2023-04-08T15:05:40;10.70;97.00
10030;DHT22;5055;52.054;8.524;2023-04-08T15:08:10;10.60;97.00
10030;DHT22;5055;52.054;8.524;2023-04-08T15:10:39;10.60;97.00
10030;DHT22;5055;52.054;8.524;2023-04-08T15:13:08;10.60;97.00
10030;DHT22;5055;52.054;8.524;2023-04-08T15:15:36;10.60;97.00
10030;DHT22;5055;52.054;8.524;2023-04-08T15:18:05;10.70;97.00
10030;DHT22;5055;52.054;8.524;2023-04-08T15:20:33;10.70;97.00
10030;DHT22;5055;52.054;8.524;2023-04-08T15:23:03;10.60;97.00
10030;DHT22;5055;52.054;8.524;2023-04-08T15:25:31;10.60;97.00
10030;DHT22;5055;52.054;8.524;2023-04-08T15:27:59;10.60;97.00
10030;DHT22;5055;52.054;8.524;2023-04-08T15:30:29;10.70;97.00
10030;DHT22;5055;52.054;8.524;2023-04-08T15:33:02;10.80;97.00
10030;DHT22;5055;52.054;8.524;2023-04-08T15:35:32;10.80;97.00
10030;DHT22;5055;52.054;8.524;2023-04-08T15:38:00;10.80;97.00
10030;DHT22;5055;52.054;8.524;2023-04-08T15:40:28;10.70;97.00
10030;DHT22;5055;52.054;8.524;2023-04-08T15:42:59;10.80;97.00
10030;DHT22;5055;52.054;8.524;2023-04-08T15:45:27;10.80;97.00
10030;DHT22;5055;52.054;8.524;2023-04-08T15:47:55;10.80;97.00
10030;DHT22;5055;52.054;8.524;2023-04-08T15:50:26;10.90;97.00
10030;DHT22;5055;52.054;8.524;2023-04-08T15:52:56;10.90;97.00
10030;DHT22;5055;52.054;8.524;2023-04-08T15:55:24;11.00;97.00
10030;DHT22;5055;52.054;8.524;2023-04-08T15:57:52;11.00;97.00
10030;DHT22;5055;52.054;8.524;2023-04-08T16:00:22;11.00;97.00
10030;DHT22;5055;52.054;8.524;2023-04-08T16:02:50;10.90;97.00
10030;DHT22;5055;52.054;8.524;2023-04-08T16:05:19;10.80;97.00
10030;DHT22;5055;52.054;8.524;2023-04-08T16:07:47;10.80;97.00
10030;DHT22;5055;52.054;8.524;2023-04-08T16:10:16;10.80;97.00